createdAt,value
2019-02-15T00:01:15.885Z,1030.23
2019-02-15T00:02:15.802Z,1030.23
2019-02-15T00:03:15.805Z,1030.24
2019-02-15T00:04:15.694Z,1030.25
2019-02-15T00:05:15.686Z,1030.21
2019-02-15T00:06:15.569Z,1030.21
2019-02-15T00:07:15.562Z,1030.20
2019-02-15T00:08:15.561Z,1030.26
2019-02-15T00:09:15.443Z,1030.25
2019-02-15T00:10:15.442Z,1030.25
2019-02-15T00:11:15.322Z,1030.24
2019-02-15T00:12:15.325Z,1030.29
2019-02-15T00:13:15.202Z,1030.27
2019-02-15T00:14:15.200Z,1030.29
2019-02-15T00:15:15.201Z,1030.27
2019-02-15T00:16:15.081Z,1030.26
2019-02-15T00:17:15.082Z,1030.24
2019-02-15T00:18:14.964Z,1030.23
2019-02-15T00:19:14.959Z,1030.22
2019-02-15T00:20:14.837Z,1030.21
2019-02-15T00:21:14.844Z,1030.22
2019-02-15T00:22:14.840Z,1030.22
2019-02-15T00:23:18.559Z,1030.20
2019-02-15T00:24:14.719Z,1030.15
2019-02-15T00:25:14.597Z,1030.19
2019-02-15T00:26:16.455Z,1030.17
2019-02-15T00:27:14.561Z,1030.14
2019-02-15T00:28:14.477Z,1030.10
2019-02-15T00:29:14.477Z,1030.12
2019-02-15T00:30:14.362Z,1030.13
2019-02-15T00:31:14.367Z,1030.06
2019-02-15T00:32:14.240Z,1030.07
2019-02-15T00:33:14.234Z,1030.06
2019-02-15T00:34:14.239Z,1030.07
2019-02-15T00:35:14.115Z,1030.09
2019-02-15T00:36:14.350Z,1030.09
2019-02-15T00:37:13.998Z,1030.08
2019-02-15T00:38:13.998Z,1030.12
2019-02-15T00:39:13.879Z,1030.08
2019-02-15T00:40:13.887Z,1030.13
2019-02-15T00:41:13.954Z,1030.10
2019-02-15T00:42:13.762Z,1030.15
2019-02-15T00:43:21.963Z,1030.11
2019-02-15T00:44:13.643Z,1030.08
2019-02-15T00:45:13.630Z,1030.09
2019-02-15T00:46:13.517Z,1030.12
2019-02-15T00:47:13.513Z,1030.10
2019-02-15T00:48:13.514Z,1030.08
2019-02-15T00:49:13.426Z,1030.13
2019-02-15T00:50:13.395Z,1030.16
2019-02-15T00:51:13.277Z,1030.16
2019-02-15T00:52:13.273Z,1030.15
2019-02-15T00:53:13.273Z,1030.17
2019-02-15T00:54:13.156Z,1030.16
2019-02-15T00:56:13.033Z,1030.14
2019-02-15T00:58:12.910Z,1030.08
2019-02-15T00:59:12.910Z,1030.09
2019-02-15T01:00:12.872Z,1030.08
2019-02-15T01:02:12.789Z,1030.06
2019-02-15T01:03:12.679Z,1030.12
2019-02-15T01:04:12.669Z,1030.14
2019-02-15T01:05:12.790Z,1030.13
2019-02-15T01:06:12.548Z,1030.07
2019-02-15T01:07:12.548Z,1030.09
2019-02-15T01:08:12.430Z,1030.08
2019-02-15T01:09:12.426Z,1030.10
2019-02-15T01:10:12.308Z,1030.08
2019-02-15T01:11:12.307Z,1030.07
2019-02-15T01:12:12.189Z,1030.13
2019-02-15T01:13:12.189Z,1030.09
2019-02-15T01:14:12.186Z,1030.08
2019-02-15T01:15:12.068Z,1030.03
2019-02-15T01:16:12.074Z,1030.03
2019-02-15T01:17:11.947Z,1030.00
2019-02-15T01:18:11.946Z,1030.02
2019-02-15T01:19:11.825Z,1029.99
2019-02-15T01:20:11.826Z,1030.00
2019-02-15T01:21:11.826Z,1030.02
2019-02-15T01:22:11.712Z,1029.99
2019-02-15T01:23:11.704Z,1029.97
2019-02-15T01:24:11.589Z,1029.99
2019-02-15T01:25:11.587Z,1030.02
2019-02-15T01:26:11.547Z,1029.95
2019-02-15T01:29:11.577Z,1029.95
2019-02-15T01:30:11.342Z,1029.93
2019-02-15T01:33:24.145Z,1029.89
2019-02-15T01:35:11.462Z,1029.82
2019-02-15T01:39:10.861Z,1029.79
2019-02-15T01:42:10.943Z,1029.81
2019-02-15T01:44:10.976Z,1029.80
2019-02-15T01:45:10.498Z,1029.82
2019-02-15T01:46:10.498Z,1029.79
2019-02-15T01:47:10.501Z,1029.77
2019-02-15T01:48:10.379Z,1029.77
2019-02-15T01:49:10.381Z,1029.72
2019-02-15T01:50:10.500Z,1029.70
2019-02-15T01:52:10.221Z,1029.73
2019-02-15T01:53:11.422Z,1029.69
2019-02-15T01:56:10.851Z,1029.73
2019-02-15T01:57:11.576Z,1029.68
2019-02-15T01:58:09.896Z,1029.69
2019-02-15T01:59:09.895Z,1029.67
2019-02-15T02:00:09.788Z,1029.66
2019-02-15T02:01:09.779Z,1029.62
2019-02-15T02:02:09.657Z,1029.65
2019-02-15T02:03:09.662Z,1029.63
2019-02-15T02:04:09.536Z,1029.60
2019-02-15T02:05:09.536Z,1029.57
2019-02-15T02:06:09.537Z,1029.55
2019-02-15T02:07:09.417Z,1029.58
2019-02-15T02:08:09.417Z,1029.55
2019-02-15T02:09:09.295Z,1029.57
2019-02-15T02:10:09.292Z,1029.53
2019-02-15T02:11:09.174Z,1029.50
2019-02-15T02:12:09.178Z,1029.52
2019-02-15T02:13:09.174Z,1029.50
2019-02-15T02:14:09.052Z,1029.51
2019-02-15T02:15:09.054Z,1029.48
2019-02-15T02:16:08.932Z,1029.46
2019-02-15T02:17:08.932Z,1029.50
2019-02-15T02:18:08.811Z,1029.47
2019-02-15T02:19:08.815Z,1029.47
2019-02-15T02:20:08.813Z,1029.47
2019-02-15T02:21:08.700Z,1029.43
2019-02-15T02:22:08.694Z,1029.42
2019-02-15T02:23:08.580Z,1029.40
2019-02-15T02:24:08.570Z,1029.39
2019-02-15T02:25:08.534Z,1029.41
2019-02-15T02:26:08.456Z,1029.39
2019-02-15T02:27:08.453Z,1029.36
2019-02-15T02:28:08.335Z,1029.35
2019-02-15T02:29:08.337Z,1029.36
2019-02-15T02:30:08.243Z,1029.34
2019-02-15T02:31:08.214Z,1029.34
2019-02-15T02:32:08.215Z,1029.37
2019-02-15T02:33:08.089Z,1029.34
2019-02-15T02:34:08.100Z,1029.31
2019-02-15T02:35:07.979Z,1029.32
2019-02-15T02:36:07.969Z,1029.29
2019-02-15T02:37:07.849Z,1029.30
2019-02-15T02:38:07.853Z,1029.28
2019-02-15T02:39:07.847Z,1029.27
2019-02-15T02:40:07.735Z,1029.23
2019-02-15T02:41:07.733Z,1029.27
2019-02-15T02:42:07.615Z,1029.27
2019-02-15T02:43:07.613Z,1029.24
2019-02-15T02:44:07.489Z,1029.25
2019-02-15T02:45:07.493Z,1029.22
2019-02-15T02:46:07.486Z,1029.24
2019-02-15T02:47:07.367Z,1029.20
2019-02-15T02:48:07.371Z,1029.20
2019-02-15T02:49:07.250Z,1029.19
2019-02-15T02:50:07.248Z,1029.20
2019-02-15T02:51:07.170Z,1029.12
2019-02-15T02:52:07.133Z,1029.16
2019-02-15T02:53:07.129Z,1029.15
2019-02-15T02:54:07.004Z,1029.14
2019-02-15T02:55:07.011Z,1029.17
2019-02-15T02:56:06.889Z,1029.17
2019-02-15T02:57:06.884Z,1029.21
2019-02-15T02:58:06.765Z,1029.21
2019-02-15T02:59:06.795Z,1029.20
2019-02-15T03:00:06.884Z,1029.21
2019-02-15T03:01:06.646Z,1029.22
2019-02-15T03:02:06.643Z,1029.25
2019-02-15T03:03:06.535Z,1029.21
2019-02-15T03:04:06.525Z,1029.21
2019-02-15T03:05:06.403Z,1029.22
2019-02-15T03:06:06.404Z,1029.24
2019-02-15T03:08:06.280Z,1029.20
2019-02-15T03:09:06.282Z,1029.21
2019-02-15T03:10:06.172Z,1029.19
2019-02-15T03:11:06.161Z,1029.11
2019-02-15T03:12:06.160Z,1029.21
2019-02-15T03:13:06.041Z,1029.21
2019-02-15T03:14:11.339Z,1029.25
2019-02-15T03:15:05.926Z,1029.22
2019-02-15T03:16:05.925Z,1029.26
2019-02-15T03:17:05.883Z,1029.25
2019-02-15T03:18:05.809Z,1029.21
2019-02-15T03:19:05.889Z,1029.24
2019-02-15T03:20:05.681Z,1029.21
2019-02-15T03:21:05.691Z,1029.17
2019-02-15T03:22:05.645Z,1029.17
2019-02-15T03:23:05.648Z,1029.16
2019-02-15T03:24:05.442Z,1029.10
2019-02-15T03:25:05.444Z,1029.10
2019-02-15T03:26:05.441Z,1029.08
2019-02-15T03:27:05.326Z,1029.12
2019-02-15T03:28:05.321Z,1029.10
2019-02-15T03:29:05.200Z,1029.08
2019-02-15T03:30:05.195Z,1029.10
2019-02-15T03:31:05.140Z,1029.11
2019-02-15T03:32:05.082Z,1029.12
2019-02-15T03:33:05.077Z,1029.08
2019-02-15T03:34:05.006Z,1029.10
2019-02-15T03:35:04.956Z,1029.12
2019-02-15T03:36:04.844Z,1029.08
2019-02-15T03:37:04.839Z,1029.08
2019-02-15T03:38:04.714Z,1029.05
2019-02-15T03:39:04.716Z,1029.04
2019-02-15T03:40:04.721Z,1029.07
2019-02-15T03:41:04.604Z,1029.08
2019-02-15T03:42:04.610Z,1029.06
2019-02-15T03:43:04.493Z,1029.08
2019-02-15T03:44:04.478Z,1029.06
2019-02-15T03:45:04.356Z,1029.11
2019-02-15T03:46:04.355Z,1029.07
2019-02-15T03:47:04.357Z,1029.07
2019-02-15T03:48:04.235Z,1029.06
2019-02-15T03:49:04.238Z,1029.05
2019-02-15T03:50:05.015Z,1029.05
2019-02-15T03:51:04.114Z,1029.04
2019-02-15T03:52:04.002Z,1029.03
2019-02-15T03:53:03.994Z,1029.00
2019-02-15T03:54:04.007Z,1028.96
2019-02-15T03:55:03.877Z,1028.97
2019-02-15T03:56:03.871Z,1028.97
2019-02-15T03:57:03.760Z,1028.97
2019-02-15T03:58:03.751Z,1029.03
2019-02-15T03:59:03.632Z,1028.95
2019-02-15T04:00:03.635Z,1028.98
2019-02-15T04:01:03.634Z,1028.99
2019-02-15T04:02:03.516Z,1028.95
2019-02-15T04:03:03.512Z,1028.93
2019-02-15T04:04:03.393Z,1028.91
2019-02-15T04:05:03.392Z,1028.93
2019-02-15T04:06:03.385Z,1028.91
2019-02-15T04:07:03.272Z,1028.90
2019-02-15T04:08:03.272Z,1028.91
2019-02-15T04:09:03.148Z,1028.89
2019-02-15T04:10:03.149Z,1028.89
2019-02-15T04:11:03.030Z,1028.89
2019-02-15T04:12:03.034Z,1028.88
2019-02-15T04:13:03.164Z,1028.91
2019-02-15T04:14:02.914Z,1028.92
2019-02-15T04:15:02.911Z,1028.90
2019-02-15T04:16:02.793Z,1028.88
2019-02-15T04:17:02.787Z,1028.90
2019-02-15T04:18:02.669Z,1028.90
2019-02-15T04:19:02.668Z,1028.90
2019-02-15T04:20:02.670Z,1028.90
2019-02-15T04:21:02.547Z,1028.88
2019-02-15T04:22:02.552Z,1028.89
2019-02-15T04:23:02.428Z,1028.89
2019-02-15T04:24:02.486Z,1028.87
2019-02-15T04:25:02.322Z,1028.88
2019-02-15T04:26:02.308Z,1028.88
2019-02-15T04:27:02.309Z,1028.90
2019-02-15T04:28:02.185Z,1028.87
2019-02-15T04:29:02.195Z,1028.92
2019-02-15T04:30:02.175Z,1028.89
2019-02-15T04:31:02.067Z,1028.91
2019-02-15T04:32:01.948Z,1028.86
2019-02-15T04:33:01.947Z,1028.85
2019-02-15T04:34:01.948Z,1028.90
2019-02-15T04:35:01.853Z,1028.86
2019-02-15T04:36:01.829Z,1028.88
2019-02-15T04:37:01.705Z,1028.90
2019-02-15T04:38:01.705Z,1028.89
2019-02-15T04:39:01.584Z,1028.90
2019-02-15T04:40:01.596Z,1028.91
2019-02-15T04:41:01.585Z,1028.93
2019-02-15T04:42:01.470Z,1028.90
2019-02-15T04:43:01.497Z,1028.89
2019-02-15T04:44:01.343Z,1028.90
2019-02-15T04:45:01.343Z,1028.90
2019-02-15T04:46:01.222Z,1028.87
2019-02-15T04:47:01.226Z,1028.88
2019-02-15T04:48:01.253Z,1028.90
2019-02-15T04:49:01.100Z,1028.91
2019-02-15T04:50:01.104Z,1028.94
2019-02-15T04:51:00.982Z,1028.90
2019-02-15T04:52:00.990Z,1028.92
2019-02-15T04:53:03.018Z,1028.93
2019-02-15T04:54:00.859Z,1028.90
2019-02-15T04:55:00.860Z,1028.90
2019-02-15T04:56:00.740Z,1028.92
2019-02-15T04:57:00.740Z,1028.91
2019-02-15T04:58:00.623Z,1028.91
2019-02-15T04:59:00.618Z,1028.91
2019-02-15T05:00:00.498Z,1028.89
2019-02-15T05:01:00.499Z,1028.93
2019-02-15T05:02:00.498Z,1028.92
2019-02-15T05:03:00.378Z,1028.89
2019-02-15T05:04:00.396Z,1028.94
2019-02-15T05:05:00.327Z,1028.99
2019-02-15T05:06:00.261Z,1028.90
2019-02-15T05:07:00.141Z,1028.93
2019-02-15T05:08:00.139Z,1028.90
2019-02-15T05:09:00.138Z,1028.89
2019-02-15T05:10:00.026Z,1028.91
2019-02-15T05:11:00.016Z,1028.93
2019-02-15T05:11:59.898Z,1028.94
2019-02-15T05:12:59.907Z,1028.90
2019-02-15T05:13:59.775Z,1028.92
2019-02-15T05:14:59.783Z,1028.94
2019-02-15T05:15:59.776Z,1028.93
2019-02-15T05:16:59.655Z,1028.88
2019-02-15T05:17:59.659Z,1028.91
2019-02-15T05:18:59.535Z,1028.91
2019-02-15T05:19:59.538Z,1028.90
2019-02-15T05:20:59.419Z,1028.96
2019-02-15T05:21:59.424Z,1028.95
2019-02-15T05:22:59.415Z,1028.97
2019-02-15T05:23:59.296Z,1028.94
2019-02-15T05:24:59.300Z,1029.01
2019-02-15T05:25:59.182Z,1028.96
2019-02-15T05:26:59.177Z,1028.97
2019-02-15T05:27:59.052Z,1028.98
2019-02-15T05:28:59.063Z,1029.00
2019-02-15T05:29:59.057Z,1029.01
2019-02-15T05:30:58.934Z,1028.95
2019-02-15T05:31:58.932Z,1029.00
2019-02-15T05:32:58.815Z,1028.98
2019-02-15T05:33:58.811Z,1028.97
2019-02-15T05:34:58.711Z,1028.97
2019-02-15T05:35:58.700Z,1028.97
2019-02-15T05:36:58.694Z,1028.96
2019-02-15T05:37:58.571Z,1028.96
2019-02-15T05:38:58.572Z,1028.97
2019-02-15T05:39:58.451Z,1028.95
2019-02-15T05:40:58.451Z,1028.95
2019-02-15T05:41:58.330Z,1029.00
2019-02-15T05:42:58.330Z,1028.94
2019-02-15T05:43:58.337Z,1029.02
2019-02-15T05:45:03.689Z,1029.00
2019-02-15T05:45:58.212Z,1028.98
2019-02-15T05:46:58.088Z,1028.97
2019-02-15T05:47:58.090Z,1028.94
2019-02-15T05:48:57.968Z,1028.98
2019-02-15T05:49:57.979Z,1029.04
2019-02-15T05:50:57.969Z,1029.01
2019-02-15T05:51:57.848Z,1028.98
2019-02-15T05:52:57.855Z,1029.05
2019-02-15T05:53:57.727Z,1029.05
2019-02-15T05:54:57.725Z,1029.04
2019-02-15T05:55:57.607Z,1029.11
2019-02-15T05:56:57.620Z,1029.13
2019-02-15T05:57:57.608Z,1029.10
2019-02-15T05:58:57.485Z,1029.10
2019-02-15T05:59:57.489Z,1029.12
2019-02-15T06:00:57.369Z,1029.09
2019-02-15T06:01:57.366Z,1029.06
2019-02-15T06:02:57.245Z,1029.07
2019-02-15T06:03:57.251Z,1029.08
2019-02-15T06:04:57.249Z,1029.07
2019-02-15T06:05:57.132Z,1029.07
2019-02-15T06:06:57.127Z,1029.06
2019-02-15T06:07:57.009Z,1029.04
2019-02-15T06:08:57.009Z,1029.05
2019-02-15T06:09:56.966Z,1029.06
2019-02-15T06:11:06.577Z,1029.05
2019-02-15T06:11:56.897Z,1029.05
2019-02-15T06:12:56.765Z,1029.01
2019-02-15T06:13:56.763Z,1029.04
2019-02-15T06:14:56.643Z,1029.00
2019-02-15T06:15:56.640Z,1028.99
2019-02-15T06:16:56.524Z,1029.01
2019-02-15T06:17:56.521Z,1028.98
2019-02-15T06:18:56.526Z,1029.00
2019-02-15T06:19:56.407Z,1028.97
2019-02-15T06:20:56.403Z,1028.94
2019-02-15T06:21:56.360Z,1028.99
2019-02-15T06:22:56.283Z,1028.97
2019-02-15T06:23:56.164Z,1029.01
2019-02-15T06:24:56.163Z,1028.96
2019-02-15T06:25:56.163Z,1028.99
2019-02-15T06:26:56.068Z,1028.95
2019-02-15T06:27:56.042Z,1029.01
2019-02-15T06:28:55.923Z,1028.99
2019-02-15T06:29:55.920Z,1029.02
2019-02-15T06:30:55.806Z,1028.96
2019-02-15T06:31:55.800Z,1028.95
2019-02-15T06:32:55.803Z,1028.95
2019-02-15T06:33:55.679Z,1028.99
2019-02-15T06:34:55.880Z,1028.97
2019-02-15T06:35:55.560Z,1029.00
2019-02-15T06:36:55.559Z,1028.99
2019-02-15T06:37:55.441Z,1028.95
2019-02-15T06:38:55.444Z,1029.00
2019-02-15T06:39:55.449Z,1028.97
2019-02-15T06:40:55.317Z,1029.03
2019-02-15T06:41:55.317Z,1028.85
2019-02-15T06:42:55.194Z,1029.01
2019-02-15T06:43:55.200Z,1029.01
2019-02-15T06:44:55.077Z,1029.04
2019-02-15T06:45:55.075Z,1029.05
2019-02-15T06:46:55.074Z,1029.06
2019-02-15T06:47:54.960Z,1029.03
2019-02-15T06:48:54.964Z,1029.04
2019-02-15T06:49:54.833Z,1029.02
2019-02-15T06:50:54.845Z,1029.02
2019-02-15T06:51:54.714Z,1029.01
2019-02-15T06:52:54.713Z,1029.04
2019-02-15T06:53:54.713Z,1029.01
2019-02-15T06:54:54.593Z,1028.96
2019-02-15T06:55:54.599Z,1028.97
2019-02-15T06:56:54.474Z,1029.03
2019-02-15T06:57:54.471Z,1029.00
2019-02-15T06:58:54.353Z,1029.00
2019-02-15T06:59:54.351Z,1028.99
2019-02-15T07:00:54.351Z,1029.03
2019-02-15T07:01:54.234Z,1029.06
2019-02-15T07:02:54.232Z,1029.08
2019-02-15T07:03:54.111Z,1029.10
2019-02-15T07:04:54.112Z,1029.09
2019-02-15T07:05:53.990Z,1029.16
2019-02-15T07:06:53.993Z,1029.14
2019-02-15T07:07:53.991Z,1029.16
2019-02-15T07:08:53.871Z,1029.16
2019-02-15T07:09:53.879Z,1029.15
2019-02-15T07:10:53.753Z,1029.12
2019-02-15T07:11:53.769Z,1029.16
2019-02-15T07:12:53.630Z,1029.15
2019-02-15T07:13:53.630Z,1029.18
2019-02-15T07:14:53.628Z,1029.20
2019-02-15T07:15:53.508Z,1029.17
2019-02-15T07:16:53.507Z,1029.18
2019-02-15T07:17:53.395Z,1029.15
2019-02-15T07:18:53.388Z,1029.18
2019-02-15T07:19:53.271Z,1029.14
2019-02-15T07:20:53.271Z,1029.14
2019-02-15T07:21:53.267Z,1029.15
2019-02-15T07:22:53.146Z,1029.21
2019-02-15T07:23:53.145Z,1029.18
2019-02-15T07:24:53.030Z,1029.15
2019-02-15T07:25:53.025Z,1029.17
2019-02-15T07:26:52.910Z,1029.18
2019-02-15T07:27:52.906Z,1029.17
2019-02-15T07:28:52.905Z,1029.18
2019-02-15T07:29:52.789Z,1029.18
2019-02-15T07:30:52.790Z,1029.18
2019-02-15T07:31:52.671Z,1029.19
2019-02-15T07:33:52.544Z,1029.15
2019-02-15T07:34:52.547Z,1029.15
2019-02-15T07:35:52.552Z,1029.10
2019-02-15T07:36:52.454Z,1029.09
2019-02-15T07:37:52.430Z,1029.09
2019-02-15T07:38:52.307Z,1029.14
2019-02-15T07:39:52.302Z,1029.11
2019-02-15T07:40:52.186Z,1029.09
2019-02-15T07:41:52.181Z,1029.12
2019-02-15T07:42:52.190Z,1029.10
2019-02-15T07:43:52.061Z,1029.12
2019-02-15T07:44:52.064Z,1029.07
2019-02-15T07:45:51.941Z,1029.11
2019-02-15T07:46:51.940Z,1029.09
2019-02-15T07:48:51.822Z,1029.14
2019-02-15T07:49:51.821Z,1029.13
2019-02-15T07:50:51.702Z,1029.12
2019-02-15T07:51:51.701Z,1029.10
2019-02-15T07:52:51.579Z,1029.14
2019-02-15T07:53:51.583Z,1029.13
2019-02-15T07:54:51.462Z,1029.16
2019-02-15T07:55:51.461Z,1029.15
2019-02-15T07:56:51.466Z,1029.10
2019-02-15T07:57:51.343Z,1029.14
2019-02-15T07:58:51.344Z,1029.14
2019-02-15T07:59:51.226Z,1029.14
2019-02-15T08:00:51.224Z,1029.15
2019-02-15T08:01:51.228Z,1029.12
2019-02-15T08:02:51.110Z,1029.16
2019-02-15T08:03:51.104Z,1029.18
2019-02-15T08:04:51.114Z,1029.15
2019-02-15T08:05:50.984Z,1029.14
2019-02-15T08:06:50.978Z,1029.13
2019-02-15T08:07:51.064Z,1029.10
2019-02-15T08:08:50.856Z,1029.09
2019-02-15T08:09:50.736Z,1029.10
2019-02-15T08:10:50.738Z,1029.14
2019-02-15T08:11:50.614Z,1029.10
2019-02-15T08:12:50.615Z,1029.13
2019-02-15T08:13:50.495Z,1029.09
2019-02-15T08:14:50.494Z,1029.12
2019-02-15T08:15:52.181Z,1029.06
2019-02-15T08:16:50.374Z,1029.07
2019-02-15T08:17:50.374Z,1029.03
2019-02-15T08:18:50.255Z,1029.07
2019-02-15T08:19:50.257Z,1029.10
2019-02-15T08:20:50.257Z,1029.12
2019-02-15T08:21:50.134Z,1029.08
2019-02-15T08:22:50.132Z,1029.09
2019-02-15T08:23:50.011Z,1029.04
2019-02-15T08:24:50.015Z,1029.11
2019-02-15T08:25:49.891Z,1029.09
2019-02-15T08:26:49.901Z,1029.07
2019-02-15T08:27:49.894Z,1029.08
2019-02-15T08:28:49.771Z,1029.06
2019-02-15T08:29:49.771Z,1029.05
2019-02-15T08:30:49.652Z,1029.03
2019-02-15T08:31:49.651Z,1029.03
2019-02-15T08:32:49.614Z,1029.05
2019-02-15T08:33:49.535Z,1029.03
2019-02-15T08:34:49.530Z,1028.97
2019-02-15T08:35:49.412Z,1028.99
2019-02-15T08:36:49.413Z,1028.95
2019-02-15T08:37:49.290Z,1028.95
2019-02-15T08:38:49.294Z,1028.91
2019-02-15T08:39:49.294Z,1028.87
2019-02-15T08:40:49.171Z,1028.86
2019-02-15T08:42:00.234Z,1028.87
2019-02-15T08:42:49.051Z,1028.82
2019-02-15T08:43:49.048Z,1028.85
2019-02-15T08:44:49.055Z,1028.83
2019-02-15T08:45:49.011Z,1028.84
2019-02-15T08:46:48.935Z,1028.79
2019-02-15T08:47:48.820Z,1028.78
2019-02-15T08:48:48.820Z,1028.79
2019-02-15T08:49:48.815Z,1028.78
2019-02-15T08:50:48.697Z,1028.72
2019-02-15T08:51:48.697Z,1028.74
2019-02-15T08:52:48.574Z,1028.76
2019-02-15T08:53:50.390Z,1028.73
2019-02-15T08:54:48.447Z,1028.75
2019-02-15T08:55:48.448Z,1028.76
2019-02-15T08:56:48.455Z,1028.71
2019-02-15T08:57:48.326Z,1028.74
2019-02-15T08:58:48.326Z,1028.74
2019-02-15T08:59:48.214Z,1028.62
2019-02-15T09:00:48.210Z,1028.69
2019-02-15T09:01:48.170Z,1028.68
2019-02-15T09:02:48.086Z,1028.65
2019-02-15T09:03:48.086Z,1028.70
2019-02-15T09:04:48.054Z,1028.70
2019-02-15T09:05:47.967Z,1028.65
2019-02-15T09:06:47.853Z,1028.67
2019-02-15T09:07:47.847Z,1028.66
2019-02-15T09:08:47.843Z,1028.67
2019-02-15T09:09:47.726Z,1028.67
2019-02-15T09:10:47.723Z,1028.66
2019-02-15T09:11:47.601Z,1028.64
2019-02-15T09:12:47.602Z,1028.59
2019-02-15T09:13:47.602Z,1028.64
2019-02-15T09:14:47.481Z,1028.64
2019-02-15T09:15:47.480Z,1028.65
2019-02-15T09:16:47.362Z,1028.62
2019-02-15T09:17:47.361Z,1028.62
2019-02-15T09:18:47.359Z,1028.60
2019-02-15T09:19:47.240Z,1028.58
2019-02-15T09:20:47.241Z,1028.60
2019-02-15T09:21:47.118Z,1028.63
2019-02-15T09:22:47.118Z,1028.55
2019-02-15T09:23:47.086Z,1028.64
2019-02-15T09:24:47.001Z,1028.60
2019-02-15T09:25:47.002Z,1028.57
2019-02-15T09:26:46.879Z,1028.60
2019-02-15T09:27:46.968Z,1028.62
2019-02-15T09:28:46.759Z,1028.62
2019-02-15T09:29:46.759Z,1028.56
2019-02-15T09:30:46.759Z,1028.55
2019-02-15T09:31:46.636Z,1028.59
2019-02-15T09:32:46.638Z,1028.58
2019-02-15T09:33:46.520Z,1028.57
2019-02-15T09:34:46.521Z,1028.57
2019-02-15T09:35:46.516Z,1028.59
2019-02-15T09:36:46.398Z,1028.58
2019-02-15T09:37:46.401Z,1028.61
2019-02-15T09:38:46.277Z,1028.60
2019-02-15T09:39:46.275Z,1028.55
2019-02-15T09:40:46.274Z,1028.51
2019-02-15T09:41:46.164Z,1028.53
2019-02-15T09:42:46.156Z,1028.57
2019-02-15T09:43:46.035Z,1028.58
2019-02-15T09:44:46.053Z,1028.52
2019-02-15T09:45:46.036Z,1028.57
2019-02-15T09:46:45.919Z,1028.52
2019-02-15T09:47:45.923Z,1028.51
2019-02-15T09:48:45.795Z,1028.56
2019-02-15T09:49:46.801Z,1028.58
2019-02-15T09:50:45.792Z,1028.57
2019-02-15T09:51:45.672Z,1028.52
2019-02-15T09:52:45.675Z,1028.50
2019-02-15T09:53:45.637Z,1028.50
2019-02-15T09:54:45.556Z,1028.51
2019-02-15T09:55:45.553Z,1028.48
2019-02-15T09:56:45.487Z,1028.55
2019-02-15T09:57:45.432Z,1028.47
2019-02-15T09:58:45.433Z,1028.51
2019-02-15T09:59:45.323Z,1028.57
2019-02-15T10:00:45.311Z,1028.52
2019-02-15T10:01:45.193Z,1028.56
2019-02-15T10:02:45.191Z,1028.52
2019-02-15T10:03:45.196Z,1028.49
2019-02-15T10:04:45.071Z,1028.53
2019-02-15T10:05:45.069Z,1028.52
2019-02-15T10:06:44.953Z,1028.46
2019-02-15T10:07:44.950Z,1028.53
2019-02-15T10:08:44.951Z,1028.51
2019-02-15T10:09:44.831Z,1028.49
2019-02-15T10:10:44.832Z,1028.51
2019-02-15T10:11:44.800Z,1028.53
2019-02-15T10:12:44.708Z,1028.52
2019-02-15T10:13:44.707Z,1028.51
2019-02-15T10:14:44.597Z,1028.53
2019-02-15T10:15:44.590Z,1028.50
2019-02-15T10:16:44.588Z,1028.48
2019-02-15T10:17:44.468Z,1028.48
2019-02-15T10:18:44.473Z,1028.52
2019-02-15T10:19:44.352Z,1028.53
2019-02-15T10:20:44.347Z,1028.51
2019-02-15T10:21:44.348Z,1028.52
2019-02-15T10:22:44.234Z,1028.46
2019-02-15T10:23:44.229Z,1028.49
2019-02-15T10:24:44.233Z,1028.48
2019-02-15T10:25:44.105Z,1028.52
2019-02-15T10:26:44.109Z,1028.50
2019-02-15T10:27:43.987Z,1028.54
2019-02-15T10:28:43.986Z,1028.46
2019-02-15T10:29:43.986Z,1028.48
2019-02-15T10:30:43.866Z,1028.43
2019-02-15T10:31:43.864Z,1028.49
2019-02-15T10:32:43.826Z,1028.49
2019-02-15T10:33:43.745Z,1028.46
2019-02-15T10:34:43.746Z,1028.48
2019-02-15T10:35:43.626Z,1028.48
2019-02-15T10:36:43.629Z,1028.45
2019-02-15T10:37:43.623Z,1028.52
2019-02-15T10:38:43.504Z,1028.51
2019-02-15T10:39:43.504Z,1028.47
2019-02-15T10:40:43.466Z,1028.49
2019-02-15T10:41:43.385Z,1028.52
2019-02-15T10:42:43.384Z,1028.50
2019-02-15T10:43:43.261Z,1028.45
2019-02-15T10:44:43.265Z,1028.51
2019-02-15T10:45:43.267Z,1028.48
2019-02-15T10:46:43.144Z,1028.43
2019-02-15T10:47:43.141Z,1028.40
2019-02-15T10:48:43.103Z,1028.43
2019-02-15T10:49:43.020Z,1028.45
2019-02-15T10:50:43.027Z,1028.42
2019-02-15T10:51:42.918Z,1028.41
2019-02-15T10:52:42.902Z,1028.37
2019-02-15T10:53:42.904Z,1028.40
2019-02-15T10:54:42.780Z,1028.33
2019-02-15T10:55:42.781Z,1028.34
2019-02-15T10:56:42.741Z,1028.39
2019-02-15T10:57:42.660Z,1028.32
2019-02-15T10:58:42.664Z,1028.37
2019-02-15T10:59:42.540Z,1028.34
2019-02-15T11:00:42.549Z,1028.38
2019-02-15T11:01:42.541Z,1028.40
2019-02-15T11:02:42.418Z,1028.38
2019-02-15T11:03:42.421Z,1028.36
2019-02-15T11:04:42.418Z,1028.39
2019-02-15T11:05:42.299Z,1028.34
2019-02-15T11:06:42.296Z,1028.36
2019-02-15T11:07:42.179Z,1028.35
2019-02-15T11:08:42.176Z,1028.38
2019-02-15T11:09:42.179Z,1028.32
2019-02-15T11:10:42.060Z,1028.35
2019-02-15T11:11:42.059Z,1028.35
2019-02-15T11:12:42.061Z,1028.31
2019-02-15T11:13:41.940Z,1028.33
2019-02-15T11:14:41.990Z,1028.33
2019-02-15T11:15:41.816Z,1028.31
2019-02-15T11:16:47.397Z,1028.32
2019-02-15T11:17:41.819Z,1028.33
2019-02-15T11:18:41.694Z,1028.28
2019-02-15T11:19:41.697Z,1028.26
2019-02-15T11:20:41.695Z,1028.25
2019-02-15T11:21:41.572Z,1028.25
2019-02-15T11:22:41.575Z,1028.26
2019-02-15T11:23:41.455Z,1028.26
2019-02-15T11:24:41.453Z,1028.21
2019-02-15T11:25:41.455Z,1028.26
2019-02-15T11:26:41.336Z,1028.25
2019-02-15T11:27:41.332Z,1028.23
2019-02-15T11:28:41.334Z,1028.20
2019-02-15T11:29:41.213Z,1028.22
2019-02-15T11:30:41.213Z,1028.18
2019-02-15T11:31:41.092Z,1028.21
2019-02-15T11:32:41.094Z,1028.15
2019-02-15T11:33:41.093Z,1028.16
2019-02-15T11:34:40.979Z,1028.18
2019-02-15T11:35:40.970Z,1028.18
2019-02-15T11:36:40.977Z,1028.16
2019-02-15T11:37:40.861Z,1028.18
2019-02-15T11:38:40.851Z,1028.20
2019-02-15T11:39:40.850Z,1028.21
2019-02-15T11:40:40.730Z,1028.22
2019-02-15T11:41:40.737Z,1028.16
2019-02-15T11:42:40.611Z,1028.16
2019-02-15T11:43:40.615Z,1028.24
2019-02-15T11:44:40.611Z,1028.10
2019-02-15T11:45:40.490Z,1028.08
2019-02-15T11:46:40.490Z,1028.10
2019-02-15T11:47:40.493Z,1028.12
2019-02-15T11:48:40.371Z,1028.12
2019-02-15T11:49:40.370Z,1028.12
2019-02-15T11:50:40.248Z,1028.12
2019-02-15T11:51:40.250Z,1028.07
2019-02-15T11:52:40.249Z,1028.07
2019-02-15T11:53:40.169Z,1028.07
2019-02-15T11:54:40.126Z,1028.05
2019-02-15T11:55:40.126Z,1028.03
2019-02-15T11:56:40.008Z,1028.02
2019-02-15T11:57:40.009Z,1027.96
2019-02-15T11:58:40.024Z,1027.92
2019-02-15T11:59:39.885Z,1027.98
2019-02-15T12:00:39.896Z,1027.92
2019-02-15T12:01:39.898Z,1027.93
2019-02-15T12:02:39.767Z,1027.90
2019-02-15T12:03:39.770Z,1027.86
2019-02-15T12:04:39.647Z,1027.85
2019-02-15T12:05:39.646Z,1027.84
2019-02-15T12:06:39.645Z,1027.85
2019-02-15T12:07:39.523Z,1027.82
2019-02-15T12:08:39.528Z,1027.85
2019-02-15T12:09:39.402Z,1027.82
2019-02-15T12:10:39.408Z,1027.83
2019-02-15T12:11:39.404Z,1027.79
2019-02-15T12:12:39.287Z,1027.79
2019-02-15T12:13:39.283Z,1027.76
2019-02-15T12:14:39.280Z,1027.72
2019-02-15T12:15:39.167Z,1027.73
2019-02-15T12:16:39.162Z,1027.72
2019-02-15T12:17:39.165Z,1027.74
2019-02-15T12:18:39.042Z,1027.67
2019-02-15T12:19:39.047Z,1027.71
2019-02-15T12:20:38.921Z,1027.69
2019-02-15T12:21:38.928Z,1027.62
2019-02-15T12:22:38.922Z,1027.65
2019-02-15T12:23:38.804Z,1027.62
2019-02-15T12:24:38.805Z,1027.60
2019-02-15T12:25:38.802Z,1027.61